Time;durP1;ratioP1;P1;durP2;ratioP2;P2;SDS_P1;SDS_P2;PMS_P1;PMS_P2;Temp;Humidity;BMP_temperature;BMP_pressure;BME280_temperature;BME280_humidity;BME280_pressure;Samples;Min_cycle;Max_cycle;Signal;HPM_P1;HPM_P2
2023/04/20 00:00:16;;;;;;;;;;;5.10;99.90;;;;;;5012724;28;19925;-64
2023/04/20 00:02:48;;;;;;;;;;;5.10;99.90;;;;;;5035533;28;19924;-63
2023/04/20 00:05:20;;;;;;;;;;;5.00;99.90;;;;;;5033553;28;19925;-64
2023/04/20 00:07:53;;;;;;;;;;;5.00;99.90;;;;;;5036715;28;20309;-63
2023/04/20 00:10:25;;;;;;;;;;;4.90;99.90;;;;;;5039540;28;19925;-64
2023/04/20 00:12:56;;;;;;;;;;;4.80;99.90;;;;;;5043452;28;19928;-64
2023/04/20 00:15:28;;;;;;;;;;;4.80;99.90;;;;;;5049706;28;20308;-64
2023/04/20 00:17:55;;;;;;;;;;;4.70;99.90;;;;;;5042096;28;19936;-63
2023/04/20 00:20:22;;;;;;;;;;;4.80;99.90;;;;;;5036524;28;19940;-63
2023/04/20 00:22:54;;;;;;;;;;;4.80;99.90;;;;;;5037071;28;19999;-64
2023/04/20 00:25:26;;;;;;;;;;;4.90;99.90;;;;;;5039404;28;19929;-64
2023/04/20 00:27:58;;;;;;;;;;;4.90;99.90;;;;;;5042804;28;20392;-64
2023/04/20 00:30:30;;;;;;;;;;;4.80;99.90;;;;;;5039614;28;19936;-64
2023/04/20 00:32:56;;;;;;;;;;;4.80;99.90;;;;;;5045737;28;19932;-63
2023/04/20 00:35:28;;;;;;;;;;;4.80;99.90;;;;;;5032080;28;19929;-64
2023/04/20 00:38:00;;;;;;;;;;;4.80;99.90;;;;;;5036794;28;20007;-64
2023/04/20 00:40:32;;;;;;;;;;;4.80;99.90;;;;;;5036621;28;19929;-63
2023/04/20 00:43:08;;;;;;;;;;;4.80;99.90;;;;;;5039615;28;19929;-64
2023/04/20 00:45:40;;;;;;;;;;;4.70;99.90;;;;;;5037498;28;19925;-64
2023/04/20 00:48:11;;;;;;;;;;;4.60;99.90;;;;;;5038568;28;19936;-64
2023/04/20 00:50:44;;;;;;;;;;;4.60;99.90;;;;;;5025260;28;19932;-64
2023/04/20 00:53:17;;;;;;;;;;;4.60;99.90;;;;;;5041659;28;20057;-64
2023/04/20 00:55:49;;;;;;;;;;;4.60;99.90;;;;;;5034278;28;19929;-63
2023/04/20 00:58:21;;;;;;;;;;;4.60;99.90;;;;;;5033127;28;19937;-63
2023/04/20 01:00:53;;;;;;;;;;;4.50;99.90;;;;;;5030850;28;20035;-63
2023/04/20 01:03:25;;;;;;;;;;;4.60;99.90;;;;;;5036401;28;20360;-63
2023/04/20 01:05:56;;;;;;;;;;;4.60;99.90;;;;;;5038861;28;20439;-64
2023/04/20 01:08:28;;;;;;;;;;;4.60;99.90;;;;;;5037848;28;19979;-64
2023/04/20 01:11:02;;;;;;;;;;;4.60;99.90;;;;;;5021583;28;19979;-63
2023/04/20 01:13:34;;;;;;;;;;;4.60;99.90;;;;;;5037608;28;19925;-63
2023/04/20 01:16:02;;;;;;;;;;;4.60;99.90;;;;;;5017756;28;19952;-64
2023/04/20 01:18:46;;;;;;;;;;;4.60;99.90;;;;;;5039201;28;19968;-64
2023/04/20 01:21:14;;;;;;;;;;;4.70;99.90;;;;;;5031167;28;19936;-64
2023/04/20 01:23:46;;;;;;;;;;;4.70;99.90;;;;;;5041052;28;19951;-64
2023/04/20 01:26:18;;;;;;;;;;;4.70;99.90;;;;;;5028442;28;19925;-64
2023/04/20 01:28:48;;;;;;;;;;;4.70;99.90;;;;;;5036455;28;19932;-64
2023/04/20 01:31:19;;;;;;;;;;;4.70;99.90;;;;;;5041242;28;19925;-64
2023/04/20 01:33:51;;;;;;;;;;;4.70;99.90;;;;;;5038407;28;19929;-63
2023/04/20 01:36:23;;;;;;;;;;;4.70;99.90;;;;;;5028571;28;20416;-64
2023/04/20 01:38:54;;;;;;;;;;;4.80;99.90;;;;;;5033446;28;19975;-63
2023/04/20 01:41:21;;;;;;;;;;;4.80;99.90;;;;;;5040264;28;19936;-64
2023/04/20 01:43:55;;;;;;;;;;;4.80;99.90;;;;;;5028802;28;19925;-63
2023/04/20 01:46:27;;;;;;;;;;;4.90;99.90;;;;;;5034431;28;19933;-64
2023/04/20 01:48:54;;;;;;;;;;;4.90;99.90;;;;;;5040645;28;19925;-63
2023/04/20 01:51:21;;;;;;;;;;;4.90;99.90;;;;;;5035544;28;20364;-63
2023/04/20 01:53:53;;;;;;;;;;;4.90;99.90;;;;;;5036712;28;19925;-63
2023/04/20 01:56:24;;;;;;;;;;;4.90;99.90;;;;;;5028493;28;19929;-64
2023/04/20 01:58:51;;;;;;;;;;;4.90;99.90;;;;;;5035520;28;20027;-64
2023/04/20 02:01:23;;;;;;;;;;;4.90;99.90;;;;;;5037266;28;19929;-64
2023/04/20 02:03:55;;;;;;;;;;;4.90;99.90;;;;;;5040613;28;19995;-63
2023/04/20 02:06:26;;;;;;;;;;;4.90;99.90;;;;;;5033032;28;20444;-64
2023/04/20 02:08:59;;;;;;;;;;;4.90;99.90;;;;;;5041245;28;20425;-63
2023/04/20 02:11:34;;;;;;;;;;;4.90;99.90;;;;;;5040080;28;20345;-63
2023/04/20 02:14:05;;;;;;;;;;;4.90;99.90;;;;;;5038225;28;19933;-64
2023/04/20 02:16:37;;;;;;;;;;;4.90;99.90;;;;;;5038843;28;19925;-63
2023/04/20 02:19:09;;;;;;;;;;;4.90;99.90;;;;;;5039644;28;20632;-64
2023/04/20 02:21:40;;;;;;;;;;;4.90;99.90;;;;;;5036543;28;19925;-63
2023/04/20 02:24:12;;;;;;;;;;;4.90;99.90;;;;;;5034238;28;19925;-64
2023/04/20 02:26:44;;;;;;;;;;;4.90;99.90;;;;;;5032857;28;19940;-63
2023/04/20 02:29:10;;;;;;;;;;;4.90;99.90;;;;;;5034486;28;19951;-63
2023/04/20 02:31:42;;;;;;;;;;;4.90;99.90;;;;;;5041808;28;20009;-63
2023/04/20 02:34:15;;;;;;;;;;;4.90;99.90;;;;;;5001881;28;19975;-64
2023/04/20 02:36:41;;;;;;;;;;;4.90;99.90;;;;;;5034068;28;19958;-63
2023/04/20 02:39:13;;;;;;;;;;;4.90;99.90;;;;;;5042068;28;19951;-63
2023/04/20 02:41:45;;;;;;;;;;;4.90;99.90;;;;;;5037160;28;19978;-63
2023/04/20 02:44:17;;;;;;;;;;;4.90;99.90;;;;;;5023403;28;20019;-64
2023/04/20 02:46:49;;;;;;;;;;;4.80;99.90;;;;;;5022839;28;19982;-63
2023/04/20 02:49:23;;;;;;;;;;;4.80;99.90;;;;;;5021928;28;20381;-63
2023/04/20 02:51:51;;;;;;;;;;;4.70;99.90;;;;;;5038068;28;19955;-63
2023/04/20 02:54:23;;;;;;;;;;;4.70;99.90;;;;;;5033786;28;20339;-63
2023/04/20 02:56:55;;;;;;;;;;;4.60;99.90;;;;;;5037623;28;20480;-63
2023/04/20 02:59:27;;;;;;;;;;;4.60;99.90;;;;;;5020422;28;20127;-63
2023/04/20 03:02:12;;;;;;;;;;;4.60;99.90;;;;;;5040709;28;19931;-63
2023/04/20 03:04:43;;;;;;;;;;;4.60;99.90;;;;;;5041775;28;19932;-63
2023/04/20 03:07:18;;;;;;;;;;;4.60;99.90;;;;;;5037695;28;19926;-63
2023/04/20 03:09:51;;;;;;;;;;;4.70;99.90;;;;;;5037661;28;19952;-63
2023/04/20 03:12:30;;;;;;;;;;;4.70;99.90;;;;;;5025337;28;19925;-64
2023/04/20 03:15:15;;;;;;;;;;;4.70;99.90;;;;;;5039470;28;20010;-63
2023/04/20 03:18:19;;;;;;;;;;;4.70;99.90;;;;;;5036893;28;19929;-64
2023/04/20 03:20:51;;;;;;;;;;;4.70;99.90;;;;;;5029406;28;20027;-63
2023/04/20 03:23:23;;;;;;;;;;;4.60;99.90;;;;;;5023608;28;20412;-64
2023/04/20 03:25:51;;;;;;;;;;;4.70;99.90;;;;;;5042512;28;20297;-63
2023/04/20 03:28:35;;;;;;;;;;;4.70;99.90;;;;;;5028002;28;20051;-64
2023/04/20 03:31:09;;;;;;;;;;;4.60;99.90;;;;;;5039644;28;19936;-63
2023/04/20 03:33:41;;;;;;;;;;;4.60;99.90;;;;;;5040502;28;19924;-63
2023/04/20 03:36:13;;;;;;;;;;;4.60;99.90;;;;;;5038535;28;19925;-63
2023/04/20 03:38:45;;;;;;;;;;;4.60;99.90;;;;;;5042101;28;20428;-63
2023/04/20 03:41:16;;;;;;;;;;;4.60;99.90;;;;;;5022169;28;19925;-63
2023/04/20 03:43:48;;;;;;;;;;;4.60;99.90;;;;;;5036248;28;19929;-63
2023/04/20 03:46:15;;;;;;;;;;;4.60;99.90;;;;;;5041312;28;20390;-64
2023/04/20 03:48:47;;;;;;;;;;;4.60;99.90;;;;;;5038596;28;19928;-64
2023/04/20 03:51:18;;;;;;;;;;;4.70;99.90;;;;;;5038954;28;19978;-64
2023/04/20 03:53:50;;;;;;;;;;;4.60;99.90;;;;;;5040062;28;19924;-63
2023/04/20 03:56:17;;;;;;;;;;;4.70;99.90;;;;;;5022987;28;19925;-63
2023/04/20 03:58:50;;;;;;;;;;;4.70;99.90;;;;;;5038782;28;19929;-63
2023/04/20 04:01:24;;;;;;;;;;;4.70;99.90;;;;;;5035165;28;20014;-64
2023/04/20 04:03:56;;;;;;;;;;;4.70;99.90;;;;;;5028744;28;20286;-63
2023/04/20 04:06:23;;;;;;;;;;;4.70;99.90;;;;;;5042237;28;19929;-64
2023/04/20 04:08:55;;;;;;;;;;;4.70;99.90;;;;;;5045263;28;20352;-64
2023/04/20 04:11:29;;;;;;;;;;;4.70;99.90;;;;;;5025632;28;20400;-64
2023/04/20 04:13:57;;;;;;;;;;;4.80;99.90;;;;;;5041042;28;20015;-63
2023/04/20 04:16:24;;;;;;;;;;;4.80;99.90;;;;;;5038867;28;19976;-63
2023/04/20 04:18:51;;;;;;;;;;;4.80;99.90;;;;;;5035648;28;19925;-63
2023/04/20 04:21:22;;;;;;;;;;;4.80;99.90;;;;;;5037453;28;20026;-69
2023/04/20 04:23:55;;;;;;;;;;;4.80;99.90;;;;;;5036555;28;19924;-63
2023/04/20 04:26:33;;;;;;;;;;;4.80;99.90;;;;;;5037748;28;20392;-63
2023/04/20 04:29:03;;;;;;;;;;;4.80;99.90;;;;;;5039007;28;19929;-66
2023/04/20 04:31:35;;;;;;;;;;;4.80;99.90;;;;;;5042159;28;19925;-64
2023/04/20 04:34:13;;;;;;;;;;;4.80;99.90;;;;;;5014144;28;19932;-64
2023/04/20 04:36:46;;;;;;;;;;;4.90;99.90;;;;;;5039056;28;20306;-64
2023/04/20 04:39:25;;;;;;;;;;;4.90;99.90;;;;;;5014883;28;19929;-64
2023/04/20 04:42:08;;;;;;;;;;;4.90;99.90;;;;;;5043393;28;19933;-64
2023/04/20 04:44:41;;;;;;;;;;;4.90;99.90;;;;;;5039830;28;19928;-64
2023/04/20 04:47:20;;;;;;;;;;;4.90;99.90;;;;;;5020812;28;19925;-64
2023/04/20 04:49:52;;;;;;;;;;;4.90;99.90;;;;;;5036038;28;19979;-64
2023/04/20 04:52:21;;;;;;;;;;;5.00;99.90;;;;;;5030713;28;19940;-64
2023/04/20 04:54:53;;;;;;;;;;;5.00;99.90;;;;;;5037408;28;19929;-64
2023/04/20 04:57:25;;;;;;;;;;;5.00;99.90;;;;;;5035016;28;19979;-63
2023/04/20 04:59:57;;;;;;;;;;;5.00;99.90;;;;;;5038460;28;19925;-63
2023/04/20 05:02:29;;;;;;;;;;;5.00;99.90;;;;;;5034776;28;20404;-64
2023/04/20 05:05:01;;;;;;;;;;;5.00;99.90;;;;;;5038755;28;19999;-63
2023/04/20 05:07:32;;;;;;;;;;;5.00;99.90;;;;;;5039603;28;19992;-63
2023/04/20 05:10:05;;;;;;;;;;;5.00;99.90;;;;;;5032735;28;20792;-64
2023/04/20 05:12:37;;;;;;;;;;;5.00;99.90;;;;;;5050870;28;19925;-63
2023/04/20 05:15:10;;;;;;;;;;;5.00;99.90;;;;;;5035708;28;19924;-63
2023/04/20 05:17:41;;;;;;;;;;;5.00;99.90;;;;;;5040611;28;20017;-64
2023/04/20 05:20:09;;;;;;;;;;;5.00;99.90;;;;;;5037160;28;19925;-63
2023/04/20 05:22:41;;;;;;;;;;;5.00;99.90;;;;;;5041027;28;20356;-64
2023/04/20 05:25:13;;;;;;;;;;;5.00;99.90;;;;;;5037805;28;19940;-64
2023/04/20 05:27:45;;;;;;;;;;;5.00;99.90;;;;;;5036775;28;19935;-64
2023/04/20 05:30:11;;;;;;;;;;;5.10;99.90;;;;;;5038804;28;19925;-64
2023/04/20 05:32:43;;;;;;;;;;;5.10;99.90;;;;;;5035724;28;20031;-64
2023/04/20 05:35:15;;;;;;;;;;;5.10;99.90;;;;;;5032842;28;20519;-64
2023/04/20 05:37:46;;;;;;;;;;;5.10;99.90;;;;;;5032386;28;19929;-64
2023/04/20 05:40:19;;;;;;;;;;;5.10;99.90;;;;;;5036858;28;19925;-64
2023/04/20 05:42:51;;;;;;;;;;;5.10;99.90;;;;;;5041878;28;19971;-64
2023/04/20 05:45:18;;;;;;;;;;;5.10;99.90;;;;;;5039080;28;20320;-63
2023/04/20 05:47:54;;;;;;;;;;;5.10;99.90;;;;;;5031869;28;19933;-64
2023/04/20 05:50:22;;;;;;;;;;;5.10;99.90;;;;;;5032936;28;19936;-63
2023/04/20 05:52:54;;;;;;;;;;;5.20;99.90;;;;;;5037565;28;19947;-63
2023/04/20 05:55:26;;;;;;;;;;;5.20;99.90;;;;;;5029516;28;19929;-63
2023/04/20 05:57:57;;;;;;;;;;;5.20;99.90;;;;;;5034252;28;19925;-64
2023/04/20 06:00:29;;;;;;;;;;;5.20;99.90;;;;;;5033374;28;20648;-63
2023/04/20 06:03:01;;;;;;;;;;;5.20;99.90;;;;;;5038589;28;20411;-63
2023/04/20 06:05:33;;;;;;;;;;;5.20;99.90;;;;;;5038552;28;20561;-64
2023/04/20 06:08:05;;;;;;;;;;;5.20;99.90;;;;;;5043034;28;19997;-64
2023/04/20 06:10:37;;;;;;;;;;;5.20;99.90;;;;;;5043209;28;19929;-64
2023/04/20 06:13:09;;;;;;;;;;;5.30;99.90;;;;;;5041812;28;19933;-64
2023/04/20 06:15:40;;;;;;;;;;;5.30;99.90;;;;;;5042142;28;19929;-64
2023/04/20 06:18:12;;;;;;;;;;;5.30;99.90;;;;;;5046527;28;19925;-64
2023/04/20 06:20:44;;;;;;;;;;;5.30;99.90;;;;;;5043862;28;19928;-63
2023/04/20 06:23:16;;;;;;;;;;;5.20;99.90;;;;;;5040057;28;19948;-64
2023/04/20 06:25:47;;;;;;;;;;;5.20;99.90;;;;;;5033821;28;20317;-64
2023/04/20 06:28:14;;;;;;;;;;;5.20;99.90;;;;;;5039768;28;19991;-64
2023/04/20 06:30:46;;;;;;;;;;;5.20;99.90;;;;;;5042559;28;19982;-63
2023/04/20 06:33:16;;;;;;;;;;;5.20;99.90;;;;;;5041653;28;19929;-64
2023/04/20 06:35:42;;;;;;;;;;;5.20;99.90;;;;;;5041494;28;19928;-64
2023/04/20 06:38:14;;;;;;;;;;;5.20;99.90;;;;;;5039673;28;19929;-64
2023/04/20 06:40:41;;;;;;;;;;;5.20;99.90;;;;;;5042323;28;19925;-63
2023/04/20 06:43:12;;;;;;;;;;;5.20;99.90;;;;;;5038820;28;19965;-63
2023/04/20 06:45:44;;;;;;;;;;;5.20;99.90;;;;;;5038155;28;20429;-63
2023/04/20 06:48:16;;;;;;;;;;;5.20;99.90;;;;;;5038399;28;19924;-63
2023/04/20 06:50:48;;;;;;;;;;;5.30;99.90;;;;;;5044603;28;19933;-63
2023/04/20 06:53:15;;;;;;;;;;;5.30;99.90;;;;;;5043756;28;19933;-63
2023/04/20 06:55:47;;;;;;;;;;;5.30;99.90;;;;;;5038862;28;19925;-63
2023/04/20 06:58:19;;;;;;;;;;;5.40;99.90;;;;;;5041868;28;19924;-63
2023/04/20 07:00:51;;;;;;;;;;;5.40;99.90;;;;;;5038166;28;19925;-63
2023/04/20 07:03:18;;;;;;;;;;;5.50;99.90;;;;;;5039061;28;20016;-63
2023/04/20 07:05:51;;;;;;;;;;;5.50;99.90;;;;;;5038165;28;19955;-63
2023/04/20 07:08:22;;;;;;;;;;;5.60;99.90;;;;;;5044343;28;19937;-63
2023/04/20 07:10:49;;;;;;;;;;;5.60;99.90;;;;;;5037274;28;19930;-63
2023/04/20 07:13:21;;;;;;;;;;;5.60;99.90;;;;;;5045928;28;19979;-63
2023/04/20 07:15:52;;;;;;;;;;;5.70;99.90;;;;;;5040614;28;19925;-63
2023/04/20 07:18:24;;;;;;;;;;;5.70;99.90;;;;;;5039683;28;19928;-63
2023/04/20 07:20:51;;;;;;;;;;;5.70;99.90;;;;;;5044117;28;19929;-63
2023/04/20 07:23:19;;;;;;;;;;;5.70;99.90;;;;;;5041534;28;19936;-63
2023/04/20 07:25:45;;;;;;;;;;;5.70;99.90;;;;;;5044262;28;19936;-63
2023/04/20 07:28:17;;;;;;;;;;;5.70;99.90;;;;;;5040638;28;19924;-63
2023/04/20 07:30:49;;;;;;;;;;;5.70;99.90;;;;;;5058767;28;19936;-63
2023/04/20 07:33:20;;;;;;;;;;;5.80;99.90;;;;;;5044318;28;19925;-63
2023/04/20 07:35:52;;;;;;;;;;;5.80;99.90;;;;;;5043292;28;19925;-63
2023/04/20 07:38:24;;;;;;;;;;;5.80;99.90;;;;;;5044700;28;20136;-63
2023/04/20 07:40:56;;;;;;;;;;;5.90;99.90;;;;;;5042238;28;20285;-63
2023/04/20 07:43:28;;;;;;;;;;;5.80;99.90;;;;;;5039780;28;19925;-63
2023/04/20 07:46:00;;;;;;;;;;;5.70;99.90;;;;;;5036864;28;19926;-63
2023/04/20 07:48:35;;;;;;;;;;;5.70;99.90;;;;;;5038517;28;19929;-63
2023/04/20 07:51:06;;;;;;;;;;;5.70;99.90;;;;;;5041250;28;19982;-63
2023/04/20 07:53:38;;;;;;;;;;;5.70;99.90;;;;;;5034164;28;19976;-63
2023/04/20 07:56:10;;;;;;;;;;;5.70;99.90;;;;;;5041202;28;20304;-63
2023/04/20 07:58:54;;;;;;;;;;;5.80;99.90;;;;;;5034883;28;19916;-63
2023/04/20 08:01:38;;;;;;;;;;;5.80;99.90;;;;;;5029866;28;19913;-63
2023/04/20 08:04:05;;;;;;;;;;;5.80;99.90;;;;;;5040080;28;19933;-63
2023/04/20 08:06:37;;;;;;;;;;;5.80;99.90;;;;;;5040364;28;19925;-63
2023/04/20 08:09:04;;;;;;;;;;;5.90;99.90;;;;;;5039926;28;19925;-63
2023/04/20 08:11:36;;;;;;;;;;;5.80;99.90;;;;;;5041577;28;20043;-63
2023/04/20 08:14:07;;;;;;;;;;;5.80;99.90;;;;;;5040395;28;19928;-63
2023/04/20 08:16:39;;;;;;;;;;;5.80;99.90;;;;;;5045214;28;19978;-63
2023/04/20 08:19:11;;;;;;;;;;;5.90;99.90;;;;;;5047512;28;19932;-63
2023/04/20 08:21:43;;;;;;;;;;;5.90;99.90;;;;;;5032115;28;20270;-63
2023/04/20 08:24:11;;;;;;;;;;;6.00;99.90;;;;;;5034806;28;19928;-63
2023/04/20 08:26:42;;;;;;;;;;;6.10;99.90;;;;;;5036988;28;19929;-63
2023/04/20 08:29:14;;;;;;;;;;;6.10;99.90;;;;;;5036368;28;19960;-63
2023/04/20 08:31:46;;;;;;;;;;;6.10;99.90;;;;;;5039475;28;19971;-63
2023/04/20 08:34:13;;;;;;;;;;;6.20;99.90;;;;;;5038173;28;19959;-63
2023/04/20 08:36:45;;;;;;;;;;;6.30;99.90;;;;;;5042563;28;19929;-63
2023/04/20 08:39:20;;;;;;;;;;;6.30;99.90;;;;;;5045043;28;19947;-63
2023/04/20 08:41:54;;;;;;;;;;;6.30;99.90;;;;;;5042045;28;20371;-63
2023/04/20 08:44:26;;;;;;;;;;;6.30;99.90;;;;;;5047237;28;19925;-63
2023/04/20 08:46:53;;;;;;;;;;;6.30;99.90;;;;;;5039130;28;19932;-63
2023/04/20 08:49:22;;;;;;;;;;;6.30;99.90;;;;;;5039550;28;19971;-63
2023/04/20 08:51:54;;;;;;;;;;;6.30;99.90;;;;;;5039551;28;19925;-63
2023/04/20 08:54:26;;;;;;;;;;;6.30;99.90;;;;;;5039071;28;20351;-63
2023/04/20 08:56:53;;;;;;;;;;;6.30;99.90;;;;;;5041759;28;19960;-63
2023/04/20 08:59:25;;;;;;;;;;;6.40;99.90;;;;;;5039277;28;19933;-64
2023/04/20 09:02:06;;;;;;;;;;;6.40;99.90;;;;;;5044569;28;20348;-63
2023/04/20 09:04:39;;;;;;;;;;;6.50;99.90;;;;;;5042880;28;19986;-64
2023/04/20 09:07:18;;;;;;;;;;;6.50;99.90;;;;;;5016182;28;19957;-64
2023/04/20 09:09:57;;;;;;;;;;;6.50;99.90;;;;;;5038150;28;20344;-63
2023/04/20 09:12:39;;;;;;;;;;;6.50;99.90;;;;;;5040784;28;20515;-64
2023/04/20 09:15:22;;;;;;;;;;;6.60;99.90;;;;;;5034610;28;19932;-63
2023/04/20 09:17:54;;;;;;;;;;;6.60;99.90;;;;;;5041686;28;19928;-63
2023/04/20 09:20:27;;;;;;;;;;;6.70;99.90;;;;;;5042797;28;20023;-64
2023/04/20 09:23:18;;;;;;;;;;;6.70;99.90;;;;;;5036160;28;19995;-64
2023/04/20 09:25:51;;;;;;;;;;;6.70;99.90;;;;;;5029930;28;20393;-63
2023/04/20 09:28:33;;;;;;;;;;;6.80;99.90;;;;;;5032594;28;19932;-63
2023/04/20 09:31:15;;;;;;;;;;;7.00;99.90;;;;;;5036713;28;19939;-64
2023/04/20 09:34:00;;;;;;;;;;;7.10;99.90;;;;;;5034612;28;19929;-64
2023/04/20 09:36:39;;;;;;;;;;;7.10;99.90;;;;;;5037760;28;19925;-63
2023/04/20 09:39:12;;;;;;;;;;;7.10;99.90;;;;;;5035484;28;19928;-63
2023/04/20 09:41:45;;;;;;;;;;;7.20;99.90;;;;;;5037856;28;19925;-63
2023/04/20 09:44:17;;;;;;;;;;;7.20;99.90;;;;;;5043456;28;20359;-63
2023/04/20 09:46:45;;;;;;;;;;;7.20;99.90;;;;;;5037260;28;19936;-63
2023/04/20 09:49:17;;;;;;;;;;;7.20;99.90;;;;;;5035795;28;19988;-63
2023/04/20 09:51:49;;;;;;;;;;;7.30;99.90;;;;;;5039017;28;19929;-64
2023/04/20 09:54:21;;;;;;;;;;;7.30;99.90;;;;;;5039040;28;19929;-63
2023/04/20 09:56:47;;;;;;;;;;;7.20;99.90;;;;;;5040019;28;19936;-63
2023/04/20 09:59:20;;;;;;;;;;;7.20;99.90;;;;;;5040155;28;19978;-63
2023/04/20 10:01:52;;;;;;;;;;;7.20;99.90;;;;;;5038477;28;20344;-63
2023/04/20 10:04:24;;;;;;;;;;;7.20;99.90;;;;;;5039241;28;20421;-63
2023/04/20 10:07:02;;;;;;;;;;;7.20;99.90;;;;;;5038650;28;19925;-63
2023/04/20 10:09:36;;;;;;;;;;;7.30;99.90;;;;;;5039146;28;19929;-63
2023/04/20 10:12:08;;;;;;;;;;;7.30;99.90;;;;;;5037336;28;19929;-64
2023/04/20 10:14:40;;;;;;;;;;;7.30;99.90;;;;;;5044758;28;20356;-64
2023/04/20 10:17:11;;;;;;;;;;;7.30;99.90;;;;;;5043512;28;19936;-63
2023/04/20 10:19:42;;;;;;;;;;;7.30;99.90;;;;;;5040358;28;19925;-63
2023/04/20 10:22:24;;;;;;;;;;;7.30;99.90;;;;;;5039310;28;19932;-63
2023/04/20 10:24:56;;;;;;;;;;;7.30;99.90;;;;;;5030229;28;19929;-63
2023/04/20 10:27:23;;;;;;;;;;;7.30;99.90;;;;;;5041451;28;19978;-63
2023/04/20 10:29:55;;;;;;;;;;;7.30;99.90;;;;;;5040965;28;19990;-63
2023/04/20 10:32:27;;;;;;;;;;;7.20;99.90;;;;;;5038002;28;19929;-63
2023/04/20 10:35:06;;;;;;;;;;;7.20;99.90;;;;;;5040775;28;20337;-63
2023/04/20 10:37:50;;;;;;;;;;;7.10;99.90;;;;;;5038217;28;19933;-63
2023/04/20 10:40:26;;;;;;;;;;;7.00;99.90;;;;;;5040103;28;19932;-63
2023/04/20 10:42:57;;;;;;;;;;;6.90;99.90;;;;;;5043690;28;19933;-63
2023/04/20 10:45:34;;;;;;;;;;;6.80;99.90;;;;;;5042032;28;19962;-63
2023/04/20 10:48:09;;;;;;;;;;;6.80;99.90;;;;;;5041925;28;20451;-63
2023/04/20 10:50:41;;;;;;;;;;;6.80;99.90;;;;;;5037459;28;19929;-64
2023/04/20 10:53:17;;;;;;;;;;;6.80;99.90;;;;;;5029706;28;19929;-63
2023/04/20 10:55:58;;;;;;;;;;;6.80;99.90;;;;;;5037108;28;20377;-63
2023/04/20 10:58:30;;;;;;;;;;;6.80;99.90;;;;;;5034167;28;19929;-63
2023/04/20 11:01:04;;;;;;;;;;;6.80;99.90;;;;;;5037533;28;19956;-64
2023/04/20 11:03:36;;;;;;;;;;;6.70;99.90;;;;;;5039745;28;19924;-63
2023/04/20 11:06:08;;;;;;;;;;;6.70;99.90;;;;;;5044470;28;19982;-63
2023/04/20 11:08:40;;;;;;;;;;;6.60;99.90;;;;;;5034217;28;20101;-63
2023/04/20 11:11:29;;;;;;;;;;;6.60;99.90;;;;;;5038471;28;19933;-63
2023/04/20 11:14:07;;;;;;;;;;;6.60;99.90;;;;;;5040916;28;19932;-64
2023/04/20 11:16:39;;;;;;;;;;;6.50;99.90;;;;;;5037781;28;19929;-63
2023/04/20 11:19:11;;;;;;;;;;;6.50;99.90;;;;;;5038917;28;19929;-63
2023/04/20 11:21:43;;;;;;;;;;;6.50;99.90;;;;;;5042031;28;20424;-63
2023/04/20 11:24:22;;;;;;;;;;;6.50;99.90;;;;;;5022950;28;19925;-64
2023/04/20 11:26:54;;;;;;;;;;;6.50;99.90;;;;;;5034412;28;19998;-63
2023/04/20 11:29:36;;;;;;;;;;;6.40;99.90;;;;;;5040825;28;19933;-64
2023/04/20 11:32:05;;;;;;;;;;;6.40;99.90;;;;;;5040313;28;19983;-63
2023/04/20 11:34:37;;;;;;;;;;;6.50;99.90;;;;;;5042648;28;20733;-63
2023/04/20 11:37:12;;;;;;;;;;;6.50;99.90;;;;;;5035891;28;19925;-63
2023/04/20 11:39:44;;;;;;;;;;;6.50;99.90;;;;;;5038191;28;19936;-63
2023/04/20 11:42:16;;;;;;;;;;;6.50;99.90;;;;;;5033406;28;19925;-64
2023/04/20 11:44:48;;;;;;;;;;;6.50;99.90;;;;;;5009258;28;19929;-64
2023/04/20 11:47:19;;;;;;;;;;;6.50;99.90;;;;;;5040138;28;19984;-64
2023/04/20 11:49:51;;;;;;;;;;;6.60;99.90;;;;;;5032749;28;19929;-64
2023/04/20 11:52:23;;;;;;;;;;;6.60;99.90;;;;;;5040572;28;19960;-63
2023/04/20 11:54:55;;;;;;;;;;;6.70;99.90;;;;;;5042033;28;19924;-63
2023/04/20 11:57:26;;;;;;;;;;;6.70;99.90;;;;;;5041880;28;19987;-63
2023/04/20 11:59:53;;;;;;;;;;;6.70;99.90;;;;;;5038225;28;19960;-63
2023/04/20 12:02:25;;;;;;;;;;;6.80;99.90;;;;;;5034330;28;19929;-63
2023/04/20 12:04:56;;;;;;;;;;;6.70;99.90;;;;;;5029817;28;19933;-63
2023/04/20 12:07:28;;;;;;;;;;;6.80;99.90;;;;;;5032576;28;20028;-63
2023/04/20 12:10:00;;;;;;;;;;;6.80;99.90;;;;;;5041824;28;20036;-63
2023/04/20 12:12:32;;;;;;;;;;;6.80;99.90;;;;;;5036041;28;20453;-63
2023/04/20 12:14:59;;;;;;;;;;;6.80;99.90;;;;;;5039703;28;20328;-64
2023/04/20 12:17:26;;;;;;;;;;;6.80;99.90;;;;;;5035802;28;19935;-63
2023/04/20 12:19:58;;;;;;;;;;;6.80;99.90;;;;;;5038933;28;19935;-63
2023/04/20 12:22:29;;;;;;;;;;;6.90;99.90;;;;;;5038066;28;19971;-63
2023/04/20 12:24:56;;;;;;;;;;;6.90;99.90;;;;;;5038084;28;20724;-63
2023/04/20 12:27:28;;;;;;;;;;;6.90;99.90;;;;;;5035876;28;19929;-63
2023/04/20 12:29:59;;;;;;;;;;;6.90;99.90;;;;;;5029304;28;19979;-63
2023/04/20 12:32:26;;;;;;;;;;;6.90;99.90;;;;;;5038569;28;19933;-63
2023/04/20 12:34:59;;;;;;;;;;;6.90;99.90;;;;;;5021266;28;20328;-63
2023/04/20 12:37:31;;;;;;;;;;;6.80;99.90;;;;;;5042267;28;20386;-63
2023/04/20 12:40:05;;;;;;;;;;;6.80;99.90;;;;;;5041836;28;19929;-63
2023/04/20 12:42:37;;;;;;;;;;;6.90;99.90;;;;;;5040711;28;20012;-63
2023/04/20 12:45:09;;;;;;;;;;;6.90;99.90;;;;;;5041307;28;19925;-63
2023/04/20 12:47:41;;;;;;;;;;;7.00;99.90;;;;;;5042704;28;19933;-63
2023/04/20 12:50:08;;;;;;;;;;;7.00;99.90;;;;;;5031729;28;19925;-64
2023/04/20 12:52:40;;;;;;;;;;;7.00;99.90;;;;;;5029496;28;19975;-63
2023/04/20 12:55:07;;;;;;;;;;;7.00;99.90;;;;;;5030950;28;19959;-63
2023/04/20 12:57:38;;;;;;;;;;;7.00;99.90;;;;;;5026464;28;20344;-64
2023/04/20 13:00:13;;;;;;;;;;;7.00;99.90;;;;;;5034570;28;20302;-64
2023/04/20 13:02:45;;;;;;;;;;;7.10;99.90;;;;;;5033494;28;19945;-64
2023/04/20 13:05:17;;;;;;;;;;;7.10;99.90;;;;;;5017265;28;19933;-62
2023/04/20 13:07:49;;;;;;;;;;;7.20;99.90;;;;;;5054583;28;19933;-63
2023/04/20 13:10:21;;;;;;;;;;;7.20;99.90;;;;;;5033632;28;19932;-63
2023/04/20 13:12:52;;;;;;;;;;;7.20;99.90;;;;;;5032789;28;19925;-63
2023/04/20 13:15:24;;;;;;;;;;;7.20;99.90;;;;;;5035431;28;20000;-63
2023/04/20 13:17:56;;;;;;;;;;;7.10;99.90;;;;;;5030523;28;19952;-64
2023/04/20 13:20:29;;;;;;;;;;;7.20;99.90;;;;;;5044879;28;19925;-63
2023/04/20 13:23:01;;;;;;;;;;;7.10;99.90;;;;;;5030436;28;19932;-63
2023/04/20 13:25:32;;;;;;;;;;;7.10;99.90;;;;;;5033321;28;19925;-63
2023/04/20 13:28:04;;;;;;;;;;;7.10;99.90;;;;;;5035136;28;19978;-63
2023/04/20 13:30:36;;;;;;;;;;;7.10;99.90;;;;;;5036546;28;19936;-63
2023/04/20 13:33:03;;;;;;;;;;;7.20;99.90;;;;;;5038910;28;19925;-64
2023/04/20 13:35:36;;;;;;;;;;;7.30;99.90;;;;;;5033411;28;19975;-63
2023/04/20 13:38:07;;;;;;;;;;;7.30;99.90;;;;;;5034305;28;20432;-63
2023/04/20 13:40:40;;;;;;;;;;;7.40;99.90;;;;;;5029751;28;19925;-63
2023/04/20 13:43:12;;;;;;;;;;;7.40;99.90;;;;;;5028938;28;19937;-63
2023/04/20 13:45:44;;;;;;;;;;;7.50;99.90;;;;;;5032329;28;19932;-64
2023/04/20 13:48:16;;;;;;;;;;;7.50;99.90;;;;;;5032515;28;19925;-63
2023/04/20 13:50:48;;;;;;;;;;;7.50;99.90;;;;;;5033332;28;19937;-63
2023/04/20 13:53:20;;;;;;;;;;;7.50;99.90;;;;;;5039746;28;19974;-63
2023/04/20 13:55:52;;;;;;;;;;;7.60;99.90;;;;;;5024000;28;19935;-63
2023/04/20 13:58:19;;;;;;;;;;;7.50;99.90;;;;;;5043587;28;20278;-63
2023/04/20 14:00:50;;;;;;;;;;;7.60;99.90;;;;;;5031805;28;19932;-64
2023/04/20 14:03:23;;;;;;;;;;;7.50;99.90;;;;;;5032542;28;19948;-63
2023/04/20 14:05:50;;;;;;;;;;;7.50;99.90;;;;;;5029190;28;19940;-63
2023/04/20 14:08:22;;;;;;;;;;;7.50;99.90;;;;;;5034982;28;19975;-64
2023/04/20 14:10:54;;;;;;;;;;;7.50;99.90;;;;;;5034751;28;19955;-63
2023/04/20 14:13:26;;;;;;;;;;;7.40;99.90;;;;;;5036973;28;19983;-63
2023/04/20 14:15:57;;;;;;;;;;;7.40;99.90;;;;;;5036699;28;19933;-63
2023/04/20 14:18:29;;;;;;;;;;;7.40;99.90;;;;;;5031629;28;19925;-64
2023/04/20 14:21:01;;;;;;;;;;;7.40;99.90;;;;;;5036131;28;20442;-66
2023/04/20 14:23:33;;;;;;;;;;;7.50;99.90;;;;;;5034924;28;19925;-64
2023/04/20 14:26:05;;;;;;;;;;;7.50;99.90;;;;;;5033614;28;19929;-64
2023/04/20 14:28:36;;;;;;;;;;;7.50;99.90;;;;;;5035277;28;19929;-64
2023/04/20 14:31:08;;;;;;;;;;;7.60;99.90;;;;;;5036134;28;19932;-63
2023/04/20 14:33:40;;;;;;;;;;;7.60;99.90;;;;;;5036884;28;20286;-63
2023/04/20 14:36:07;;;;;;;;;;;7.60;99.90;;;;;;5035051;28;20396;-63
2023/04/20 14:38:34;;;;;;;;;;;7.60;99.90;;;;;;5041009;28;20341;-64
2023/04/20 14:41:00;;;;;;;;;;;7.60;99.90;;;;;;5034053;28;19928;-63
2023/04/20 14:43:27;;;;;;;;;;;7.60;99.90;;;;;;5034131;28;19929;-64
2023/04/20 14:45:59;;;;;;;;;;;7.60;99.90;;;;;;5032622;28;19933;-64
2023/04/20 14:48:31;;;;;;;;;;;7.60;99.90;;;;;;5038157;28;19939;-63
2023/04/20 14:51:04;;;;;;;;;;;7.70;99.90;;;;;;5030852;28;19976;-63
2023/04/20 14:53:31;;;;;;;;;;;7.70;99.90;;;;;;5034693;28;19929;-64
2023/04/20 14:56:03;;;;;;;;;;;7.70;99.90;;;;;;5035021;28;19933;-63
2023/04/20 14:58:36;;;;;;;;;;;7.70;99.90;;;;;;5034208;28;19926;-63